Time;durP1;ratioP1;P1;durP2;ratioP2;P2;SDS_P1;SDS_P2;PMS_P1;PMS_P2;Temp;Humidity;BMP_temperature;BMP_pressure;BME280_temperature;BME280_humidity;BME280_pressure;Samples;Min_cycle;Max_cycle;Signal;HPM_P1;HPM_P2
2021/08/29 00:00:44;;;;;;;3.67;2.52;;;;;;;18.41;64.94;100162.89;1805486;78;20971;-70
2021/08/29 00:03:11;;;;;;;2.87;2.33;;;;;;;18.37;65.00;100168.27;1833065;78;20987;-71
2021/08/29 00:05:37;;;;;;;3.10;2.40;;;;;;;18.35;64.90;100180.16;1805171;78;20991;-71
2021/08/29 00:08:04;;;;;;;5.47;2.33;;;;;;;18.35;64.89;100187.68;1831710;78;22188;-70
2021/08/29 00:10:31;;;;;;;3.45;2.30;;;;;;;18.36;64.93;100193.35;1833236;78;21058;-71
2021/08/29 00:12:57;;;;;;;9.83;2.50;;;;;;;18.37;65.01;100193.67;1832950;78;21011;-70
2021/08/29 00:15:24;;;;;;;6.15;2.10;;;;;;;18.38;65.02;100197.19;1837677;77;20944;-71
2021/08/29 00:17:51;;;;;;;5.17;2.33;;;;;;;18.37;65.16;100195.52;1844070;77;20927;-70
2021/08/29 00:20:18;;;;;;;2.72;2.30;;;;;;;18.29;65.41;100181.69;1833317;78;22447;-70
2021/08/29 00:22:44;;;;;;;6.00;2.40;;;;;;;18.25;65.60;100187.07;1832941;78;20923;-71
2021/08/29 00:25:10;;;;;;;3.77;2.02;;;;;;;18.22;65.70;100183.39;1832537;78;20962;-71
2021/08/29 00:27:37;;;;;;;2.80;2.40;;;;;;;18.19;65.74;100182.42;1832900;78;20991;-71
2021/08/29 00:30:04;;;;;;;3.72;2.50;;;;;;;18.17;65.86;100180.43;1833013;78;20975;-71
2021/08/29 00:32:30;;;;;;;3.17;2.45;;;;;;;18.15;65.92;100181.95;1832965;78;21795;-70
2021/08/29 00:34:57;;;;;;;4.00;2.40;;;;;;;18.16;65.92;100181.44;1832857;78;21015;-70
2021/08/29 00:37:24;;;;;;;4.90;2.50;;;;;;;18.16;65.93;100176.09;1832844;77;20927;-70
2021/08/29 00:39:50;;;;;;;2.72;2.40;;;;;;;18.16;65.99;100173.42;1833269;78;20998;-70
2021/08/29 00:42:16;;;;;;;8.88;2.42;;;;;;;18.11;66.07;100173.94;1820878;77;21488;-71
2021/08/29 00:44:43;;;;;;;4.92;2.30;;;;;;;18.08;66.14;100180.98;1805339;78;22177;-71
2021/08/29 00:47:09;;;;;;;2.90;2.20;;;;;;;18.06;66.25;100180.83;1833028;78;20924;-70
2021/08/29 00:49:38;;;;;;;2.87;2.12;;;;;;;18.01;66.44;100174.66;1832909;78;21026;-70
2021/08/29 00:52:05;;;;;;;2.50;2.10;;;;;;;17.96;66.64;100169.84;1832847;78;20979;-70
2021/08/29 00:54:35;;;;;;;2.72;2.27;;;;;;;17.93;66.76;100164.00;1832951;78;20979;-70
2021/08/29 00:57:05;;;;;;;3.98;2.50;;;;;;;17.89;66.74;100154.17;1832305;78;21759;-70
2021/08/29 00:59:32;;;;;;;3.30;2.42;;;;;;;17.89;66.77;100159.52;1829116;78;20935;-70
2021/08/29 01:02:13;;;;;;;2.85;2.40;;;;;;;17.87;66.86;100158.03;1830302;78;21457;-70
2021/08/29 01:05:03;;;;;;;4.95;2.40;;;;;;;17.86;66.82;100145.69;1830558;78;20920;-70
2021/08/29 01:07:38;;;;;;;4.03;2.45;;;;;;;17.84;66.97;100147.17;1829817;78;20931;-70
2021/08/29 01:10:11;;;;;;;5.60;2.77;;;;;;;17.82;67.09;100149.70;1830626;78;22231;-70
2021/08/29 01:12:39;;;;;;;7.10;2.90;;;;;;;17.78;67.20;100142.55;1828127;78;21497;-70
2021/08/29 01:15:07;;;;;;;4.90;2.35;;;;;;;17.78;67.26;100146.55;1830258;78;21010;-70
2021/08/29 01:17:36;;;;;;;3.87;2.30;;;;;;;17.76;67.36;100145.03;1828857;78;21006;-70
2021/08/29 01:20:38;;;;;;;5.20;2.50;;;;;;;17.70;67.48;100140.73;1830893;78;20924;-70
2021/08/29 01:23:07;;;;;;;3.95;2.40;;;;;;;17.65;67.62;100147.55;1831031;78;21864;-70
2021/08/29 01:25:35;;;;;;;6.72;2.45;;;;;;;17.61;67.75;100143.58;1832303;78;20935;-71
2021/08/29 01:28:16;;;;;;;3.80;2.10;;;;;;;17.55;67.99;100145.59;1832451;78;20920;-70
2021/08/29 01:30:45;;;;;;;4.87;2.30;;;;;;;17.50;68.24;100139.95;1832555;78;20916;-70
2021/08/29 01:33:13;;;;;;;2.50;2.30;;;;;;;17.45;68.36;100144.45;1793453;79;20984;-70
2021/08/29 01:35:41;;;;;;;3.72;2.33;;;;;;;17.41;68.40;100139.97;1796285;79;21826;-70
2021/08/29 01:38:09;;;;;;;3.83;2.90;;;;;;;17.42;68.45;100136.80;1797527;79;21062;-70
2021/08/29 01:40:36;;;;;;;5.72;2.77;;;;;;;17.39;68.40;100141.98;1771048;79;21038;-70
2021/08/29 01:43:03;;;;;;;4.85;2.47;;;;;;;17.39;68.32;100136.65;1820764;78;21430;-70
2021/08/29 01:45:29;;;;;;;6.37;2.27;;;;;;;17.41;68.35;100141.31;1830293;77;20974;-70
2021/08/29 01:47:57;;;;;;;5.00;2.12;;;;;;;17.42;68.39;100139.47;1830217;78;22234;-70
2021/08/29 01:50:26;;;;;;;4.12;2.25;;;;;;;17.40;68.43;100141.48;1828742;78;21027;-70
2021/08/29 01:52:54;;;;;;;4.40;2.20;;;;;;;17.39;68.44;100139.82;1829608;78;21349;-70
2021/08/29 01:55:34;;;;;;;3.35;2.30;;;;;;;17.35;68.64;100133.14;1811436;78;20932;-70
2021/08/29 01:58:03;;;;;;;11.20;2.20;;;;;;;17.31;68.80;100126.49;1829637;78;20925;-70
2021/08/29 02:00:33;;;;;;;3.10;2.02;;;;;;;17.27;68.91;100120.64;1829418;78;22200;-70
2021/08/29 02:03:00;;;;;;;2.52;2.30;;;;;;;17.24;69.02;100115.66;1802805;78;20936;-71
2021/08/29 02:05:26;;;;;;;4.22;2.20;;;;;;;17.20;69.15;100114.34;1803112;78;21031;-70
2021/08/29 02:07:53;;;;;;;4.00;2.30;;;;;;;17.16;69.28;100100.48;1829091;78;20928;-70
2021/08/29 02:10:30;;;;;;;2.42;1.98;;;;;;;17.13;69.38;100099.51;1805005;78;20912;-70
2021/08/29 02:13:09;;;;;;;4.78;2.20;;;;;;;17.08;69.48;100097.01;1829487;78;21019;-71
2021/08/29 02:15:50;;;;;;;3.50;2.12;;;;;;;17.02;69.69;100095.88;1830250;78;20960;-70
2021/08/29 02:18:16;;;;;;;5.37;2.67;;;;;;;17.00;69.80;100095.21;1829910;78;20971;-70
2021/08/29 02:20:47;;;;;;;2.67;2.42;;;;;;;17.03;69.71;100094.86;1830684;78;21390;-70
2021/08/29 02:23:15;;;;;;;2.87;2.30;;;;;;;17.03;69.64;100090.86;1830255;78;21440;-70
2021/08/29 02:25:47;;;;;;;4.10;2.92;;;;;;;17.08;69.46;100091.20;1829364;78;22805;-71
2021/08/29 02:28:15;;;;;;;6.35;3.22;;;;;;;17.14;69.23;100092.33;1802875;78;20920;-71
2021/08/29 02:30:42;;;;;;;7.00;3.20;;;;;;;17.20;69.16;100084.98;1830621;78;20916;-71
2021/08/29 02:33:10;;;;;;;4.97;2.80;;;;;;;17.24;69.03;100094.80;1802699;78;21026;-70
2021/08/29 02:35:38;;;;;;;4.70;2.50;;;;;;;17.28;69.03;100102.82;1830198;78;20979;-70
2021/08/29 02:38:04;;;;;;;7.12;2.92;;;;;;;17.29;69.05;100101.81;1830167;78;22287;-70
2021/08/29 02:40:38;;;;;;;4.40;2.87;;;;;;;17.29;69.12;100092.47;1828371;78;21580;-71
2021/08/29 02:43:06;;;;;;;4.47;2.25;;;;;;;17.31;69.07;100097.13;1821275;78;21509;-70
2021/08/29 02:45:36;;;;;;;4.15;2.37;;;;;;;17.31;68.87;100095.80;1830170;78;21050;-70
2021/08/29 02:48:04;;;;;;;4.17;2.30;;;;;;;17.32;68.62;100094.78;1803231;78;20931;-70
2021/08/29 02:50:34;;;;;;;3.20;2.52;;;;;;;17.37;68.41;100100.42;1830429;78;21251;-70
2021/08/29 02:53:02;;;;;;;3.98;2.83;;;;;;;17.40;68.28;100104.11;1830107;78;21030;-71
2021/08/29 02:55:28;;;;;;;2.55;2.35;;;;;;;17.44;68.14;100106.24;1830548;78;20971;-70
2021/08/29 02:58:01;;;;;;;2.35;2.15;;;;;;;17.46;68.04;100100.73;1828737;78;21007;-70
2021/08/29 03:00:45;;;;;;;5.80;2.65;;;;;;;17.50;67.98;100097.23;1827982;78;20928;-70
2021/08/29 03:03:13;;;;;;;4.80;2.60;;;;;;;17.52;67.90;100096.55;1828629;78;22217;-71
2021/08/29 03:05:41;;;;;;;3.37;2.30;;;;;;;17.51;67.93;100095.72;1829828;78;21015;-70
2021/08/29 03:08:10;;;;;;;2.75;2.20;;;;;;;17.50;67.84;100089.22;1830017;78;20955;-70
2021/08/29 03:10:38;;;;;;;4.35;2.30;;;;;;;17.51;67.70;100086.37;1829953;78;20971;-70
2021/08/29 03:13:05;;;;;;;5.17;2.40;;;;;;;17.53;67.58;100086.19;1774565;78;21497;-70
2021/08/29 03:15:34;;;;;;;3.37;2.10;;;;;;;17.56;67.52;100085.83;1827092;78;21831;-70
2021/08/29 03:18:02;;;;;;;3.40;2.55;;;;;;;17.58;67.44;100083.84;1841812;77;21019;-70
2021/08/29 03:20:29;;;;;;;4.00;2.33;;;;;;;17.59;67.47;100085.00;1807143;77;21003;-70
2021/08/29 03:22:57;;;;;;;3.45;2.00;;;;;;;17.60;67.46;100091.17;1797690;79;21493;-70
2021/08/29 03:25:24;;;;;;;4.67;2.35;;;;;;;17.60;67.42;100094.67;1797463;79;21454;-70
2021/08/29 03:27:51;;;;;;;2.45;2.25;;;;;;;17.62;67.33;100095.33;1806677;77;21859;-71
2021/08/29 03:30:18;;;;;;;2.72;2.25;;;;;;;17.67;67.32;100094.82;1829854;78;20983;-70
2021/08/29 03:32:45;;;;;;;3.52;2.30;;;;;;;17.71;67.28;100084.13;1811474;78;21015;-70
2021/08/29 03:35:14;;;;;;;6.15;2.70;;;;;;;17.76;67.20;100087.60;1855936;77;20955;-70
2021/08/29 03:37:43;;;;;;;2.83;2.20;;;;;;;17.79;67.23;100079.26;1863905;77;20938;-70
2021/08/29 03:40:11;;;;;;;5.75;2.45;;;;;;;17.80;67.23;100074.23;1864201;75;21839;-70
2021/08/29 03:42:38;;;;;;;3.85;2.30;;;;;;;17.85;67.18;100077.20;1864354;75;21493;-70
2021/08/29 03:45:10;;;;;;;2.80;2.25;;;;;;;17.90;67.17;100073.52;1864066;76;21050;-70
2021/08/29 03:47:38;;;;;;;3.80;2.30;;;;;;;17.93;67.09;100074.48;1864464;77;21003;-70
2021/08/29 03:50:07;;;;;;;5.45;2.70;;;;;;;18.00;66.96;100076.78;1814721;77;21034;-70
2021/08/29 03:52:37;;;;;;;2.98;2.52;;;;;;;18.08;66.69;100074.57;1818724;78;21824;-70
2021/08/29 03:55:08;;;;;;;4.87;3.30;;;;;;;18.17;66.31;100079.69;1799902;78;21007;-69
2021/08/29 03:57:37;;;;;;;3.90;2.80;;;;;;;18.26;66.10;100081.80;1829431;78;21408;-70
2021/08/29 04:00:06;;;;;;;3.67;2.90;;;;;;;18.34;65.81;100084.92;1833112;78;20970;-69
2021/08/29 04:02:34;;;;;;;3.10;2.70;;;;;;;18.40;65.56;100075.66;1824757;78;21402;-69
2021/08/29 04:05:02;;;;;;;6.03;2.70;;;;;;;18.46;65.37;100079.47;1809342;78;22632;-69
2021/08/29 04:07:30;;;;;;;4.92;3.02;;;;;;;18.52;65.25;100079.55;1809554;78;21363;-70
2021/08/29 04:10:03;;;;;;;4.75;2.92;;;;;;;18.58;65.16;100080.69;1832249;78;21294;-70
2021/08/29 04:12:32;;;;;;;6.67;2.90;;;;;;;18.64;65.05;100083.16;1817431;78;21481;-69
2021/08/29 04:15:18;;;;;;;3.87;3.00;;;;;;;18.68;64.93;100075.95;1800331;79;21042;-69
2021/08/29 04:17:45;;;;;;;5.35;2.67;;;;;;;18.75;64.85;100074.22;1800480;79;22202;-69
2021/08/29 04:20:14;;;;;;;3.72;2.87;;;;;;;18.80;64.90;100077.16;1800176;79;20920;-70
2021/08/29 04:22:42;;;;;;;4.22;3.30;;;;;;;18.85;64.76;100078.80;1806945;78;21014;-70
2021/08/29 04:25:11;;;;;;;7.53;3.47;;;;;;;18.91;64.79;100071.87;1816136;78;20974;-69
2021/08/29 04:27:38;;;;;;;6.45;3.00;;;;;;;18.97;64.79;100075.16;1833248;78;20991;-69
2021/08/29 04:30:07;;;;;;;5.53;2.80;;;;;;;19.04;64.80;100069.91;1777506;79;22193;-69
2021/08/29 04:32:37;;;;;;;3.08;2.72;;;;;;;19.09;64.84;100062.14;1800170;78;21034;-70
2021/08/29 04:35:06;;;;;;;3.87;2.70;;;;;;;19.10;64.60;100057.11;1800208;79;21333;-70
2021/08/29 04:37:34;;;;;;;4.15;2.58;;;;;;;19.12;64.39;100059.12;1798414;79;21044;-70
2021/08/29 04:40:06;;;;;;;3.00;2.50;;;;;;;19.14;64.35;100054.41;1799206;78;21061;-71
2021/08/29 04:42:34;;;;;;;3.42;2.60;;;;;;;19.15;64.43;100054.22;1808252;78;21800;-70
2021/08/29 04:45:01;;;;;;;4.28;3.22;;;;;;;19.16;64.28;100059.89;1825144;78;21314;-69
2021/08/29 04:47:27;;;;;;;3.60;3.17;;;;;;;19.18;64.24;100061.55;1829959;78;21030;-70
2021/08/29 04:49:56;;;;;;;3.83;3.15;;;;;;;19.20;64.21;100057.66;1804594;77;20938;-70
2021/08/29 04:52:22;;;;;;;3.85;3.08;;;;;;;19.24;64.24;100054.95;1802370;78;20931;-70
2021/08/29 04:54:50;;;;;;;3.72;2.92;;;;;;;19.27;64.08;100053.23;1824162;78;21783;-70
2021/08/29 04:57:16;;;;;;;4.37;3.40;;;;;;;19.29;64.00;100049.85;1779976;79;21021;-70
2021/08/29 04:59:43;;;;;;;4.30;3.37;;;;;;;19.31;63.89;100040.33;1810919;78;21394;-69
2021/08/29 05:02:10;;;;;;;6.40;3.58;;;;;;;19.34;63.82;100032.73;1813007;78;20879;-69
2021/08/29 05:04:36;;;;;;;5.12;3.25;;;;;;;19.37;63.52;100028.33;1828243;78;21038;-68
2021/08/29 05:07:04;;;;;;;5.03;3.00;;;;;;;19.41;63.50;100024.28;1829680;78;22234;-69
2021/08/29 05:09:31;;;;;;;5.78;3.10;;;;;;;19.44;63.50;100025.23;1824137;78;21014;-70
2021/08/29 05:11:58;;;;;;;3.30;3.00;;;;;;;19.52;63.45;100026.16;1797845;78;21055;-70
2021/08/29 05:14:24;;;;;;;4.78;2.98;;;;;;;19.58;63.36;100017.38;1737702;81;21015;-70
2021/08/29 05:16:51;;;;;;;4.25;3.30;;;;;;;19.64;63.17;100028.69;1745114;80;21019;-70
2021/08/29 05:19:18;;;;;;;3.27;2.98;;;;;;;19.70;63.17;100018.05;1761170;80;21706;-70
2021/08/29 05:21:46;;;;;;;3.72;3.22;;;;;;;19.76;63.02;100014.28;1744194;80;21533;-70
2021/08/29 05:24:20;;;;;;;4.90;3.00;;;;;;;19.79;62.99;100005.37;1731428;81;21072;-68
2021/08/29 05:26:49;;;;;;;5.08;3.40;;;;;;;19.85;63.05;100007.78;1739737;81;21060;-71
2021/08/29 05:29:16;;;;;;;4.40;3.33;;;;;;;19.90;62.88;100012.07;1753033;81;21051;-71
2021/08/29 05:31:43;;;;;;;3.55;3.12;;;;;;;19.96;62.79;100008.09;1752254;81;22436;-70
2021/08/29 05:34:09;;;;;;;6.45;3.15;;;;;;;19.99;62.78;100008.24;1729430;81;21794;-69
2021/08/29 05:36:36;;;;;;;4.25;3.22;;;;;;;20.01;62.74;100008.88;1770292;79;20948;-70
2021/08/29 05:39:03;;;;;;;6.75;3.40;;;;;;;20.06;62.68;99998.39;1749475;80;21087;-70
2021/08/29 05:41:34;;;;;;;5.10;3.83;;;;;;;20.07;62.57;99994.68;1741561;81;21043;-72
2021/08/29 05:44:19;;;;;;;4.12;3.55;;;;;;;20.08;62.63;99988.84;1729023;82;22665;-70
2021/08/29 05:46:45;;;;;;;4.17;3.50;;;;;;;20.16;62.67;99991.36;1720745;82;21035;-70
2021/08/29 05:49:12;;;;;;;7.92;3.77;;;;;;;20.25;62.63;99986.18;1747463;81;21638;-71
2021/08/29 05:51:40;;;;;;;5.80;4.15;;;;;;;20.29;62.35;99984.78;1769030;81;21366;-71
2021/08/29 05:54:07;;;;;;;6.45;3.80;;;;;;;20.28;62.35;99982.61;1768375;79;21079;-71
2021/08/29 05:56:34;;;;;;;5.10;3.65;;;;;;;20.33;62.27;99981.19;1755851;81;21836;-70
2021/08/29 05:59:02;;;;;;;5.78;4.10;;;;;;;20.37;62.33;99974.43;1754564;81;21838;-72
2021/08/29 06:01:30;;;;;;;5.37;3.90;;;;;;;20.37;62.01;99973.92;1757736;81;21078;-72
2021/08/29 06:03:57;;;;;;;4.87;3.72;;;;;;;20.40;62.10;99966.81;1738742;81;21426;-71
2021/08/29 06:06:36;;;;;;;5.20;4.33;;;;;;;20.49;62.19;99966.19;1747676;81;21044;-69
2021/08/29 06:09:02;;;;;;;4.97;4.10;;;;;;;20.52;62.04;99963.93;1746210;81;21823;-70
2021/08/29 06:11:30;;;;;;;5.30;4.35;;;;;;;20.61;62.09;99969.14;1767826;80;21485;-71
2021/08/29 06:13:57;;;;;;;4.50;4.03;;;;;;;20.69;61.87;99965.80;1757647;81;21047;-74
2021/08/29 06:16:23;;;;;;;5.03;4.47;;;;;;;20.76;61.67;99963.98;1754109;81;21043;-71
2021/08/29 06:18:51;;;;;;;7.87;4.30;;;;;;;20.84;61.39;99967.00;1786634;79;21070;-72
2021/08/29 06:21:18;;;;;;;4.75;4.20;;;;;;;20.91;61.22;99963.84;1749424;81;21846;-71
2021/08/29 06:23:45;;;;;;;5.72;3.95;;;;;;;20.96;61.20;99962.75;1742509;79;21000;-72
2021/08/29 06:26:25;;;;;;;5.40;4.75;;;;;;;21.10;61.37;99966.31;1757040;81;21008;-72
2021/08/29 06:29:11;;;;;;;9.83;4.25;;;;;;;21.20;60.82;99956.02;1745004;81;21087;-71
2021/08/29 06:31:56;;;;;;;6.03;4.28;;;;;;;21.25;60.75;99943.35;1755755;80;21561;-71
2021/08/29 06:34:41;;;;;;;6.08;4.55;;;;;;;21.34;60.64;99942.17;1750241;81;21855;-69
2021/08/29 06:37:09;;;;;;;5.17;4.28;;;;;;;21.39;60.55;99931.63;1752517;81;21044;-70
2021/08/29 06:39:36;;;;;;;5.35;4.35;;;;;;;21.47;60.56;99932.80;1753366;79;21046;-69
2021/08/29 06:42:02;;;;;;;7.87;4.67;;;;;;;21.56;60.37;99929.41;1756361;81;20969;-70
2021/08/29 06:44:29;;;;;;;11.35;4.75;;;;;;;21.64;60.36;99927.88;1744869;81;21513;-70
2021/08/29 06:47:14;;;;;;;5.20;4.70;;;;;;;21.75;60.31;99927.78;1758374;79;21850;-69
2021/08/29 06:49:59;;;;;;;5.30;4.50;;;;;;;21.88;60.16;99927.27;1756589;81;21011;-70
2021/08/29 06:52:37;;;;;;;5.40;4.50;;;;;;;22.00;59.94;99917.56;1735411;82;21071;-70
2021/08/29 06:55:21;;;;;;;4.87;4.40;;;;;;;22.14;59.56;99925.65;1752741;81;20995;-72
2021/08/29 06:58:06;;;;;;;6.15;4.75;;;;;;;22.19;59.35;99923.97;1758223;81;21083;-71
2021/08/29 07:00:34;;;;;;;6.12;4.53;;;;;;;22.27;59.34;99922.94;1785736;79;22469;-72
2021/08/29 07:03:02;;;;;;;7.70;4.70;;;;;;;22.34;58.90;99926.98;1787586;79;21043;-72
2021/08/29 07:05:28;;;;;;;6.75;4.72;;;;;;;22.41;58.91;99927.80;1794844;79;21011;-72
2021/08/29 07:07:56;;;;;;;5.30;4.53;;;;;;;22.51;58.76;99926.84;1792290;79;21488;-72
2021/08/29 07:10:25;;;;;;;5.33;4.83;;;;;;;22.64;58.69;99927.33;1795675;79;21011;-71
2021/08/29 07:13:08;;;;;;;;;;;;;;;22.76;58.55;99925.11;1720564;83;22233;-73
2021/08/29 07:15:35;;;;;;;8.93;5.03;;;;;;;22.90;58.31;99921.90;1769911;78;20428;-72
2021/08/29 07:18:03;;;;;;;11.95;5.10;;;;;;;23.00;57.86;99922.80;1795659;79;20988;-72
2021/08/29 07:20:43;;;;;;;6.78;4.90;;;;;;;23.06;57.68;99924.61;1745339;79;20964;-72
2021/08/29 07:23:29;;;;;;;5.83;5.22;;;;;;;23.16;57.89;99919.59;1797027;79;21000;-71
2021/08/29 07:26:15;;;;;;;9.73;5.00;;;;;;;23.30;57.45;99917.67;1797068;79;21932;-71
2021/08/29 07:29:00;;;;;;;5.62;4.92;;;;;;;23.34;57.06;99908.92;1797025;79;21031;-71
2021/08/29 07:31:28;;;;;;;5.25;4.75;;;;;;;23.47;56.78;99909.91;1790408;79;21470;-71
2021/08/29 07:33:55;;;;;;;7.25;5.50;;;;;;;23.58;56.80;99909.21;1796950;79;21008;-72
2021/08/29 07:36:24;;;;;;;8.78;5.17;;;;;;;23.69;56.64;99908.02;1795587;79;21538;-72
2021/08/29 07:38:58;;;;;;;7.60;5.50;;;;;;;23.81;56.52;99906.78;1794524;79;22449;-71
2021/08/29 07:41:25;;;;;;;8.05;5.58;;;;;;;23.90;55.80;99908.16;1797271;79;21355;-71
2021/08/29 07:43:51;;;;;;;7.58;5.65;;;;;;;23.87;55.31;99903.73;1772390;79;20948;-71
2021/08/29 07:46:24;;;;;;;6.05;5.55;;;;;;;23.93;55.79;99908.23;1796891;79;21032;-72
2021/08/29 07:48:46;;;;;;;10.85;5.62;;;;;;;24.03;55.23;99906.39;1765133;81;21070;-72
2021/08/29 07:51:13;;;;;;;7.30;5.47;;;;;;;24.07;55.32;99903.05;1765593;81;21808;-71
2021/08/29 07:53:58;;;;;;;8.03;5.80;;;;;;;24.15;54.96;99904.12;1765501;81;20984;-71
2021/08/29 07:56:32;;;;;;;6.60;5.60;;;;;;;24.25;54.99;99909.83;1757476;81;21393;-71
2021/08/29 07:58:58;;;;;;;6.67;5.97;;;;;;;24.36;54.74;99911.00;1765285;81;21039;-72
2021/08/29 08:01:25;;;;;;;7.55;6.20;;;;;;;24.41;54.23;99906.27;1765525;81;20933;-71
2021/08/29 08:04:10;;;;;;;8.38;6.00;;;;;;;24.45;54.21;99898.87;1766732;79;22567;-71
2021/08/29 08:06:56;;;;;;;7.08;6.30;;;;;;;24.54;54.03;99891.30;1765948;81;20932;-71
2021/08/29 08:09:40;;;;;;;6.55;5.92;;;;;;;24.68;54.42;99892.79;1766324;81;20976;-71
2021/08/29 08:12:27;;;;;;;9.63;6.62;;;;;;;24.85;54.04;99886.26;1767072;81;21039;-71
2021/08/29 08:14:54;;;;;;;8.68;6.20;;;;;;;24.98;53.62;99880.67;1767735;81;20940;-71
2021/08/29 08:17:20;;;;;;;16.07;6.50;;;;;;;25.13;53.53;99870.86;1767978;81;21800;-71
2021/08/29 08:19:47;;;;;;;7.62;6.83;;;;;;;25.24;52.83;99871.95;1767314;81;21003;-71
2021/08/29 08:22:13;;;;;;;10.10;6.70;;;;;;;25.23;52.07;99871.13;1768843;79;21035;-72
2021/08/29 08:24:44;;;;;;;11.57;6.60;;;;;;;25.26;52.47;99867.95;1764901;81;21008;-71
2021/08/29 08:27:18;;;;;;;9.15;6.70;;;;;;;25.35;52.17;99864.41;1727298;81;21059;-71
2021/08/29 08:30:04;;;;;;;7.40;6.25;;;;;;;25.45;51.91;99860.61;1765669;81;21723;-71
2021/08/29 08:32:36;;;;;;;8.00;6.30;;;;;;;25.58;51.64;99860.42;1720544;81;21490;-72
2021/08/29 08:35:06;;;;;;;7.15;6.45;;;;;;;25.71;51.24;99859.41;1762623;81;20956;-72
2021/08/29 08:37:34;;;;;;;7.92;6.10;;;;;;;25.84;51.02;99863.77;1743977;79;20964;-72
2021/08/29 08:40:11;;;;;;;10.08;6.70;;;;;;;26.01;50.91;99857.14;1726820;80;21007;-72
2021/08/29 08:42:42;;;;;;;8.00;5.97;;;;;;;26.18;50.62;99852.13;1765664;81;21766;-73
2021/08/29 08:45:27;;;;;;;7.55;5.97;;;;;;;26.36;49.84;99850.36;1765602;81;21039;-72
2021/08/29 08:48:00;;;;;;;6.60;5.87;;;;;;;26.48;49.20;99839.82;1761865;81;21470;-72
2021/08/29 08:50:47;;;;;;;19.80;7.20;;;;;;;26.66;49.25;99838.84;1765647;81;20956;-72
2021/08/29 08:53:28;;;;;;;9.95;6.60;;;;;;;26.81;48.19;99826.94;1735465;81;21054;-72
2021/08/29 08:56:11;;;;;;;7.53;5.67;;;;;;;26.92;47.11;99820.34;1743199;82;27579;-72
2021/08/29 08:58:59;;;;;;;10.03;6.33;;;;;;;27.03;47.68;99814.94;1780035;79;20980;-72
2021/08/29 09:01:33;;;;;;;9.58;6.15;;;;;;;27.12;46.73;99810.45;1690870;82;21004;-73
2021/08/29 09:04:08;;;;;;;7.35;6.53;;;;;;;27.17;46.51;99804.59;1724930;82;21023;-72
2021/08/29 09:06:36;;;;;;;8.65;6.15;;;;;;;27.34;46.53;99800.55;1743286;82;20964;-73
2021/08/29 09:09:03;;;;;;;6.90;6.20;;;;;;;27.42;46.33;99800.16;1727473;83;21798;-73
2021/08/29 09:11:34;;;;;;;9.70;6.33;;;;;;;27.56;46.97;99808.77;1757966;81;20983;-73
2021/08/29 09:14:01;;;;;;;8.43;6.40;;;;;;;27.78;47.65;99810.23;1733351;82;20972;-73
2021/08/29 09:16:28;;;;;;;10.72;7.35;;;;;;;28.04;47.11;99797.86;1727349;81;21087;-73
2021/08/29 09:19:02;;;;;;;8.18;6.17;;;;;;;28.24;46.53;99798.95;1755039;81;21038;-73
2021/08/29 09:21:35;;;;;;;13.55;6.35;;;;;;;28.42;46.42;99793.78;1695693;84;21849;-72
2021/08/29 09:24:11;;;;;;;8.83;6.42;;;;;;;28.57;45.22;99799.09;1697419;84;20969;-73
2021/08/29 09:26:51;;;;;;;7.80;6.72;;;;;;;28.65;44.37;99794.58;1706756;82;21079;-73
2021/08/29 09:29:24;;;;;;;8.00;6.30;;;;;;;28.55;43.72;99788.49;1691877;83;20963;-73
2021/08/29 09:31:52;;;;;;;8.00;6.40;;;;;;;28.48;44.52;99787.89;1733389;82;21003;-72
2021/08/29 09:34:21;;;;;;;9.43;6.60;;;;;;;28.50;44.73;99780.30;1726122;81;22764;-72
2021/08/29 09:36:50;;;;;;;8.38;6.30;;;;;;;28.64;44.87;99780.72;1759037;81;21031;-72
2021/08/29 09:39:25;;;;;;;9.43;6.17;;;;;;;28.82;45.00;99769.50;1731736;81;21473;-72
2021/08/29 09:42:04;;;;;;;7.55;5.97;;;;;;;29.00;43.72;99773.25;1716701;83;21016;-72
2021/08/29 09:44:42;;;;;;;9.70;6.37;;;;;;;29.17;43.70;99768.25;1727674;81;21000;-72
2021/08/29 09:47:29;;;;;;;7.80;6.15;;;;;;;29.37;43.29;99765.69;1726344;83;22233;-73
2021/08/29 09:50:05;;;;;;;7.08;6.30;;;;;;;29.59;42.89;99761.52;1711443;81;20944;-72
2021/08/29 09:52:34;;;;;;;7.30;6.35;;;;;;;29.75;42.10;99766.00;1732370;82;20980;-72
2021/08/29 09:55:06;;;;;;;9.63;6.67;;;;;;;29.87;41.56;99765.25;1728915;82;21012;-73
2021/08/29 09:57:37;;;;;;;7.17;6.47;;;;;;;29.95;41.37;99763.94;1729444;82;21031;-72
2021/08/29 10:00:08;;;;;;;8.80;6.17;;;;;;;29.98;41.74;99754.41;1737425;79;22844;-73
2021/08/29 10:02:43;;;;;;;7.92;5.87;;;;;;;30.10;42.12;99753.68;1796530;79;20995;-73
2021/08/29 10:05:17;;;;;;;7.12;6.42;;;;;;;30.23;40.88;99756.48;1797644;79;20956;-72
2021/08/29 10:08:09;;;;;;;7.87;6.40;;;;;;;30.25;40.65;99749.67;1797028;79;21035;-72
2021/08/29 10:10:48;;;;;;;7.25;6.20;;;;;;;30.32;40.85;99739.36;1797070;79;20938;-72
2021/08/29 10:13:17;;;;;;;7.53;6.30;;;;;;;30.45;40.18;99742.11;1797107;79;21827;-72
2021/08/29 10:15:45;;;;;;;8.13;5.97;;;;;;;30.51;39.89;99736.97;1794127;79;20931;-73
2021/08/29 10:18:11;;;;;;;8.28;6.08;;;;;;;30.62;40.38;99723.63;1796961;79;20999;-72
2021/08/29 10:20:57;;;;;;;8.65;6.40;;;;;;;30.71;39.14;99716.59;1756026;81;21077;-72
2021/08/29 10:23:48;;;;;;;7.17;6.15;;;;;;;31.11;39.76;99711.44;1714015;82;21433;-72
2021/08/29 10:26:17;;;;;;;6.90;6.20;;;;;;;31.11;39.76;99711.44;1765526;81;22189;-72
2021/08/29 10:29:06;;;;;;;10.50;6.58;;;;;;;31.31;38.58;99718.28;1750963;81;21490;-72
2021/08/29 10:32:03;;;;;;;6.50;5.90;;;;;;;31.45;38.14;99713.88;1718160;79;21107;-72
2021/08/29 10:34:32;;;;;;;7.58;6.42;;;;;;;31.46;37.92;99711.97;1744892;81;20984;-74
2021/08/29 10:37:00;;;;;;;7.67;5.72;;;;;;;31.36;38.01;99711.98;1742521;81;21059;-74
2021/08/29 10:39:45;;;;;;;6.83;5.92;;;;;;;31.40;38.17;99713.91;1767190;81;21849;-73
2021/08/29 10:42:19;;;;;;;7.15;6.30;;;;;;;31.44;37.58;99712.80;1770979;80;21467;-73
2021/08/29 10:44:54;;;;;;;8.08;6.35;;;;;;;31.52;38.12;99709.52;1744723;80;21115;-73
2021/08/29 10:47:38;;;;;;;7.03;6.33;;;;;;;31.76;38.33;99714.69;1789155;79;21031;-71
2021/08/29 10:50:11;;;;;;;7.30;6.10;;;;;;;31.79;36.10;99716.86;1717232;81;21111;-74
2021/08/29 10:52:38;;;;;;;8.38;6.42;;;;;;;31.70;36.77;99707.56;1745354;81;22895;-73
2021/08/29 10:55:08;;;;;;;6.80;6.20;;;;;;;31.86;37.58;99708.38;1760961;81;20917;-71
2021/08/29 10:57:39;;;;;;;7.17;6.47;;;;;;;32.15;37.53;99709.91;1761851;81;20997;-73
2021/08/29 11:00:26;;;;;;;7.08;6.37;;;;;;;32.43;36.91;99711.17;1742896;80;21091;-71
2021/08/29 11:02:53;;;;;;;9.08;6.55;;;;;;;32.66;36.11;99707.73;1774517;79;20959;-73
2021/08/29 11:05:33;;;;;;;8.75;7.12;;;;;;;32.75;35.89;99703.84;1728628;79;21854;-74
2021/08/29 11:08:27;;;;;;;7.80;7.00;;;;;;;32.69;34.24;99697.58;1786336;79;21000;-73
2021/08/29 11:10:55;;;;;;;7.60;6.80;;;;;;;32.57;35.47;99696.31;1753498;79;20959;-73
2021/08/29 11:13:32;;;;;;;8.90;6.87;;;;;;;32.51;35.67;99687.86;1765231;81;21054;-74
2021/08/29 11:16:14;;;;;;;7.33;6.45;;;;;;;32.55;35.41;99687.58;1773941;79;21047;-73
2021/08/29 11:19:06;;;;;;;7.37;6.67;;;;;;;32.62;35.06;99686.69;1692911;83;21860;-73
2021/08/29 11:22:09;;;;;;;9.25;6.67;;;;;;;32.61;35.85;99685.06;1733770;81;21120;-74
2021/08/29 11:25:07;;;;;;;7.55;6.83;;;;;;;32.71;35.68;99678.15;1759465;80;21093;-73
2021/08/29 11:27:52;;;;;;;7.95;6.80;;;;;;;32.89;34.89;99681.59;1757073;79;20976;-73
2021/08/29 11:30:38;;;;;;;7.95;7.15;;;;;;;33.05;33.21;99669.98;1750641;81;21031;-75
2021/08/29 11:33:13;;;;;;;10.58;7.60;;;;;;;32.92;34.13;99675.58;1745331;81;22204;-74
2021/08/29 11:35:50;;;;;;;9.10;8.25;;;;;;;32.90;34.10;99670.92;1791282;79;20931;-75
2021/08/29 11:38:36;;;;;;;10.82;7.65;;;;;;;32.84;33.51;99668.53;1728289;81;21504;-75
2021/08/29 11:41:15;;;;;;;9.38;8.10;;;;;;;32.70;34.71;99661.48;1791354;79;21446;-74
2021/08/29 11:43:47;;;;;;;13.20;8.25;;;;;;;32.63;35.10;99670.03;1765405;81;21003;-73
2021/08/29 11:46:22;;;;;;;13.18;8.33;;;;;;;32.52;35.18;99660.79;1747034;79;21785;-74
2021/08/29 11:49:09;;;;;;;11.83;8.68;;;;;;;32.41;36.01;99662.77;1765670;80;21532;-74
2021/08/29 11:51:42;;;;;;;11.38;9.25;;;;;;;32.26;35.45;99660.94;1757754;81;20989;-73